Time;durP1;ratioP1;P1;durP2;ratioP2;P2;SDS_P1;SDS_P2;PMS_P1;PMS_P2;Temp;Humidity;BMP_temperature;BMP_pressure;BME280_temperature;BME280_humidity;BME280_pressure;Samples;Min_cycle;Max_cycle;Signal;HPM_P1;HPM_P2
2023/07/21 00:02:06;;;;;;;1.10;0.60;;;22.70;63.10;;;;;;5033978;28;20141;-59
2023/07/21 00:04:32;;;;;;;0.90;0.55;;;22.70;63.10;;;;;;5034645;28;20057;-59
2023/07/21 00:06:58;;;;;;;1.20;0.70;;;22.70;63.20;;;;;;5034730;28;20045;-60
2023/07/21 00:09:23;;;;;;;1.42;0.70;;;22.70;63.10;;;;;;5034696;28;20046;-59
2023/07/21 00:11:49;;;;;;;1.13;0.65;;;22.70;63.20;;;;;;5034624;28;20408;-59
2023/07/21 00:14:14;;;;;;;1.50;0.70;;;22.70;63.40;;;;;;5035315;28;20092;-60
2023/07/21 00:16:40;;;;;;;2.58;0.70;;;22.70;63.20;;;;;;5033704;28;20037;-59
2023/07/21 00:19:06;;;;;;;1.10;0.57;;;22.70;63.20;;;;;;5035019;28;20486;-60
2023/07/21 00:21:32;;;;;;;1.35;0.70;;;22.70;63.20;;;;;;5034791;28;20045;-60
2023/07/21 00:23:58;;;;;;;2.42;0.80;;;22.70;63.20;;;;;;5034540;28;20037;-59
2023/07/21 00:26:24;;;;;;;1.40;0.73;;;22.70;63.80;;;;;;5034639;28;20084;-59
2023/07/21 00:28:50;;;;;;;1.75;0.77;;;22.70;63.20;;;;;;5034868;28;20045;-59
2023/07/21 00:31:15;;;;;;;2.03;0.80;;;22.70;63.20;;;;;;5033815;28;20060;-59
2023/07/21 00:33:41;;;;;;;1.20;0.57;;;22.60;63.20;;;;;;5034607;28;20537;-59
2023/07/21 00:36:08;;;;;;;1.02;0.50;;;22.60;63.10;;;;;;5033144;28;20046;-59
2023/07/21 00:38:34;;;;;;;1.75;0.75;;;22.70;63.20;;;;;;5033949;28;20507;-59
2023/07/21 00:40:59;;;;;;;1.20;0.70;;;22.60;63.10;;;;;;5034392;28;20038;-59
2023/07/21 00:43:25;;;;;;;1.77;0.63;;;22.60;63.10;;;;;;5033460;28;20130;-59
2023/07/21 00:45:51;;;;;;;1.83;0.70;;;22.60;63.20;;;;;;5033208;28;20084;-59
2023/07/21 00:48:17;;;;;;;1.95;0.60;;;22.60;63.10;;;;;;5032982;28;20077;-59
2023/07/21 00:50:50;;;;;;;1.60;0.60;;;22.60;63.20;;;;;;5034131;28;20501;-59
2023/07/21 00:53:16;;;;;;;1.17;0.60;;;22.60;63.20;;;;;;5034329;28;20049;-59
2023/07/21 00:55:41;;;;;;;1.80;0.60;;;22.60;63.10;;;;;;5016169;28;20132;-60
2023/07/21 00:58:11;;;;;;;0.82;0.57;;;22.60;63.20;;;;;;5033965;28;20053;-60
2023/07/21 01:00:40;;;;;;;1.63;0.77;;;22.60;63.20;;;;;;5033987;28;20069;-59
2023/07/21 01:03:06;;;;;;;1.33;0.77;;;22.60;63.20;;;;;;5034412;28;20474;-59
2023/07/21 01:05:33;;;;;;;1.20;0.55;;;22.60;63.20;;;;;;5032194;28;20120;-60
2023/07/21 01:08:00;;;;;;;1.55;0.60;;;22.60;63.20;;;;;;5033267;28;20052;-59
2023/07/21 01:10:26;;;;;;;1.50;0.60;;;22.60;63.20;;;;;;5034333;28;20444;-59
2023/07/21 01:12:52;;;;;;;1.27;0.60;;;22.60;63.20;;;;;;5013084;28;20042;-59
2023/07/21 01:15:18;;;;;;;0.95;0.60;;;22.60;63.20;;;;;;5013207;28;20049;-60
2023/07/21 01:17:43;;;;;;;1.65;0.60;;;22.60;63.20;;;;;;5013194;28;20042;-59
2023/07/21 01:20:11;;;;;;;1.00;0.60;;;22.60;63.30;;;;;;4995801;28;20095;-60
2023/07/21 01:22:44;;;;;;;1.73;0.52;;;22.60;63.20;;;;;;5013539;28;20053;-59
2023/07/21 01:25:11;;;;;;;1.08;0.47;;;22.60;63.30;;;;;;5013132;28;20053;-59
2023/07/21 01:27:41;;;;;;;1.93;0.70;;;22.60;63.30;;;;;;5011762;28;20049;-59
2023/07/21 01:30:10;;;;;;;1.50;0.70;;;22.60;63.20;;;;;;4996820;28;20042;-59
2023/07/21 01:32:37;;;;;;;1.98;0.52;;;22.60;63.30;;;;;;5012617;28;20124;-60
2023/07/21 01:35:04;;;;;;;1.33;0.70;;;22.60;63.30;;;;;;4996151;28;20504;-59
2023/07/21 01:37:31;;;;;;;1.10;0.60;;;22.60;63.30;;;;;;5012549;28;20042;-60
2023/07/21 01:39:57;;;;;;;1.13;0.60;;;22.60;63.30;;;;;;4996499;28;20120;-60
2023/07/21 01:42:29;;;;;;;2.38;0.80;;;22.50;63.20;;;;;;5005415;28;20181;-60
2023/07/21 01:44:56;;;;;;;1.10;0.50;;;22.50;63.20;;;;;;5012175;28;20050;-59
2023/07/21 01:47:21;;;;;;;1.63;0.60;;;22.50;63.20;;;;;;5013144;28;20042;-60
2023/07/21 01:49:47;;;;;;;1.10;0.65;;;22.50;63.20;;;;;;5014910;28;20052;-59
2023/07/21 01:52:17;;;;;;;0.82;0.52;;;22.50;63.20;;;;;;5022194;28;20121;-59
2023/07/21 01:54:48;;;;;;;1.40;0.60;;;22.50;63.20;;;;;;5012964;28;20050;-60
2023/07/21 01:57:20;;;;;;;1.17;0.57;;;22.50;63.20;;;;;;5011943;28;20531;-60
2023/07/21 01:59:46;;;;;;;1.27;0.60;;;22.50;63.20;;;;;;5012042;28;20045;-60
2023/07/21 02:02:12;;;;;;;0.75;0.55;;;22.50;63.20;;;;;;5016488;28;20044;-60
2023/07/21 02:04:38;;;;;;;1.48;0.60;;;22.50;63.20;;;;;;5010876;28;20041;-60
2023/07/21 02:07:05;;;;;;;1.45;0.68;;;22.50;63.30;;;;;;5013599;28;20057;-59
2023/07/21 02:09:31;;;;;;;1.20;0.70;;;22.50;63.30;;;;;;5012325;28;20084;-59
2023/07/21 02:11:57;;;;;;;1.20;0.70;;;22.50;63.30;;;;;;5013434;28;20042;-59
2023/07/21 02:14:22;;;;;;;1.42;0.60;;;22.50;63.30;;;;;;5012377;28;20057;-59
2023/07/21 02:16:49;;;;;;;1.10;0.55;;;22.50;63.30;;;;;;5012330;28;20539;-59
2023/07/21 02:19:14;;;;;;;1.20;0.60;;;22.50;63.30;;;;;;5013645;28;20038;-59
2023/07/21 02:21:40;;;;;;;1.80;0.60;;;22.50;63.30;;;;;;5013202;28;20543;-60
2023/07/21 02:24:06;;;;;;;2.13;0.55;;;22.50;63.30;;;;;;5012428;28;20096;-59
2023/07/21 02:26:32;;;;;;;0.98;0.50;;;22.50;63.30;;;;;;5012646;28;20113;-59
2023/07/21 02:28:58;;;;;;;1.23;0.70;;;22.50;63.30;;;;;;5013144;28;20379;-59
2023/07/21 02:31:24;;;;;;;1.45;0.65;;;22.50;63.90;;;;;;5014612;28;20041;-59
2023/07/21 02:33:50;;;;;;;1.38;0.70;;;22.50;63.30;;;;;;5032258;28;20049;-60
2023/07/21 02:36:16;;;;;;;1.45;0.70;;;22.50;63.30;;;;;;5032671;28;20044;-60
2023/07/21 02:38:41;;;;;;;1.23;0.57;;;22.40;63.30;;;;;;5031503;28;20053;-59
2023/07/21 02:41:08;;;;;;;1.10;0.70;;;22.50;63.30;;;;;;5031572;28;20042;-59
2023/07/21 02:43:34;;;;;;;1.25;0.60;;;22.50;63.30;;;;;;5029687;28;20505;-60
2023/07/21 02:45:59;;;;;;;1.38;0.70;;;22.50;63.30;;;;;;5032621;28;20087;-59
2023/07/21 02:48:25;;;;;;;1.60;0.60;;;22.50;63.30;;;;;;5032220;28;20129;-59
2023/07/21 02:50:51;;;;;;;1.33;0.63;;;22.50;63.30;;;;;;5031734;28;20110;-59
2023/07/21 02:53:18;;;;;;;0.82;0.60;;;22.40;63.30;;;;;;5031230;28;20049;-59
2023/07/21 02:55:43;;;;;;;0.90;0.60;;;22.50;63.30;;;;;;5031801;28;20065;-59
2023/07/21 02:58:10;;;;;;;1.23;0.63;;;22.40;63.30;;;;;;5015159;28;20053;-59
2023/07/21 03:00:36;;;;;;;1.48;0.60;;;22.40;63.30;;;;;;5012490;28;20103;-59
2023/07/21 03:03:03;;;;;;;1.45;0.70;;;22.40;63.30;;;;;;4995177;28;20120;-59
2023/07/21 03:05:29;;;;;;;1.38;0.50;;;22.40;63.30;;;;;;5010867;28;20050;-59
2023/07/21 03:07:56;;;;;;;1.55;0.57;;;22.40;63.30;;;;;;5025463;28;20073;-59
2023/07/21 03:10:22;;;;;;;1.33;0.50;;;22.40;63.30;;;;;;5032872;28;20041;-59
2023/07/21 03:12:47;;;;;;;0.60;0.45;;;22.40;63.30;;;;;;5035445;28;20392;-59
2023/07/21 03:15:15;;;;;;;1.58;0.60;;;22.40;63.30;;;;;;5036577;28;20080;-59
2023/07/21 03:17:40;;;;;;;1.92;0.60;;;22.40;63.30;;;;;;5034704;28;20048;-59
2023/07/21 03:20:11;;;;;;;0.88;0.50;;;22.40;63.30;;;;;;5033757;28;20045;-59
2023/07/21 03:22:46;;;;;;;0.98;0.50;;;22.40;63.30;;;;;;5035843;28;20037;-59
2023/07/21 03:25:13;;;;;;;1.92;0.60;;;22.40;63.30;;;;;;5036107;28;20584;-59
2023/07/21 03:27:39;;;;;;;0.82;0.50;;;22.40;63.30;;;;;;5035050;28;20046;-59
2023/07/21 03:30:06;;;;;;;1.60;0.75;;;22.40;63.40;;;;;;5036007;28;20038;-59
2023/07/21 03:32:32;;;;;;;1.20;0.60;;;22.40;63.30;;;;;;5034421;28;20048;-59
2023/07/21 03:34:57;;;;;;;1.10;0.60;;;22.30;63.30;;;;;;5035504;28;20041;-59
2023/07/21 03:37:24;;;;;;;1.15;0.60;;;22.30;63.30;;;;;;5035409;28;20125;-59
2023/07/21 03:39:49;;;;;;;0.63;0.40;;;22.30;63.30;;;;;;5034955;28;20095;-59
2023/07/21 03:42:15;;;;;;;1.55;0.65;;;22.40;63.30;;;;;;5035873;28;20041;-59
2023/07/21 03:44:41;;;;;;;0.75;0.50;;;22.30;63.30;;;;;;5035822;28;20107;-59
2023/07/21 03:47:06;;;;;;;0.95;0.50;;;22.30;63.30;;;;;;5034888;28;20461;-59
2023/07/21 03:49:32;;;;;;;1.58;0.60;;;22.30;63.30;;;;;;5035254;28;20041;-59
2023/07/21 03:51:57;;;;;;;1.27;0.60;;;22.30;63.30;;;;;;5019095;28;20065;-59
2023/07/21 03:54:23;;;;;;;0.77;0.50;;;22.30;63.30;;;;;;5034854;28;20103;-60
2023/07/21 03:56:49;;;;;;;1.20;0.63;;;22.30;63.30;;;;;;5035446;28;20041;-59
2023/07/21 03:59:14;;;;;;;0.85;0.60;;;22.30;63.30;;;;;;5035969;28;20396;-59
2023/07/21 04:01:40;;;;;;;1.20;0.63;;;22.30;63.30;;;;;;5025174;28;20034;-59
2023/07/21 04:04:05;;;;;;;0.45;0.40;;;22.30;63.30;;;;;;5029468;28;20041;-59
2023/07/21 04:06:31;;;;;;;0.90;0.65;;;22.30;63.30;;;;;;5035299;28;20045;-59
2023/07/21 04:08:56;;;;;;;1.23;0.47;;;22.30;63.30;;;;;;5034478;28;20801;-60
2023/07/21 04:11:22;;;;;;;1.30;0.70;;;22.30;63.30;;;;;;5033983;28;20045;-59
2023/07/21 04:13:48;;;;;;;0.93;0.60;;;22.30;63.30;;;;;;5034981;28;20067;-59
2023/07/21 04:16:13;;;;;;;0.95;0.57;;;22.30;63.30;;;;;;5034469;28;20037;-59
2023/07/21 04:18:39;;;;;;;1.33;0.63;;;22.30;63.30;;;;;;5033536;28;20099;-59
2023/07/21 04:21:05;;;;;;;1.30;0.60;;;22.30;63.30;;;;;;5034199;28;20404;-59
2023/07/21 04:23:30;;;;;;;1.15;0.60;;;22.30;63.30;;;;;;5033587;28;20061;-59
2023/07/21 04:25:56;;;;;;;1.55;0.65;;;22.30;63.30;;;;;;5035081;28;20068;-59
2023/07/21 04:28:22;;;;;;;1.33;0.70;;;22.30;63.30;;;;;;5034481;28;20052;-59
2023/07/21 04:30:52;;;;;;;1.20;0.60;;;22.30;63.30;;;;;;5034198;28;20401;-59
2023/07/21 04:33:18;;;;;;;1.30;0.65;;;22.30;63.40;;;;;;5034081;28;20481;-59
2023/07/21 04:35:45;;;;;;;1.08;0.60;;;22.30;63.30;;;;;;5033372;28;20124;-59
2023/07/21 04:38:12;;;;;;;1.23;0.40;;;22.30;63.30;;;;;;5033869;28;20496;-59
2023/07/21 04:40:38;;;;;;;1.13;0.70;;;22.20;63.30;;;;;;5034210;28;20401;-59
2023/07/21 04:43:03;;;;;;;0.85;0.50;;;22.30;63.40;;;;;;5033857;28;20057;-59
2023/07/21 04:45:29;;;;;;;1.17;0.50;;;22.30;63.40;;;;;;5033195;28;20061;-59
2023/07/21 04:47:55;;;;;;;0.90;0.50;;;22.30;63.40;;;;;;5034048;28;20053;-59
2023/07/21 04:50:21;;;;;;;1.38;0.60;;;22.30;63.50;;;;;;5033763;28;20049;-59
2023/07/21 04:52:47;;;;;;;1.25;0.52;;;22.30;63.50;;;;;;5034169;28;20401;-59
2023/07/21 04:55:13;;;;;;;1.38;0.60;;;22.30;63.50;;;;;;5034668;28;20057;-59
2023/07/21 04:57:39;;;;;;;0.85;0.50;;;22.20;63.50;;;;;;5031984;28;20041;-58
2023/07/21 05:00:11;;;;;;;1.15;0.60;;;22.30;63.50;;;;;;5033624;28;20033;-59
2023/07/21 05:02:37;;;;;;;0.80;0.60;;;22.30;63.50;;;;;;5029983;28;20038;-59
2023/07/21 05:05:03;;;;;;;1.10;0.63;;;22.30;63.60;;;;;;5013782;28;20398;-59
2023/07/21 05:07:29;;;;;;;1.25;0.60;;;22.30;64.20;;;;;;5014317;28;20508;-59
2023/07/21 05:09:55;;;;;;;0.90;0.50;;;22.30;63.70;;;;;;5014415;28;20049;-59
2023/07/21 05:12:23;;;;;;;0.80;0.60;;;22.30;63.70;;;;;;5015247;28;20052;-59
2023/07/21 05:14:48;;;;;;;1.58;0.50;;;22.30;63.80;;;;;;5034192;28;20045;-59
2023/07/21 05:17:14;;;;;;;1.20;0.50;;;22.30;63.80;;;;;;5033853;28;20048;-59
2023/07/21 05:19:40;;;;;;;1.25;0.50;;;22.30;63.90;;;;;;5033262;28;20553;-59
2023/07/21 05:22:06;;;;;;;1.13;0.60;;;22.30;63.80;;;;;;5034053;28;20038;-59
2023/07/21 05:24:31;;;;;;;1.52;0.65;;;22.30;63.90;;;;;;5033670;28;20045;-59
2023/07/21 05:26:57;;;;;;;1.00;0.70;;;22.30;63.90;;;;;;5033266;28;20493;-59
2023/07/21 05:29:22;;;;;;;1.15;0.60;;;22.30;63.80;;;;;;5033497;28;20047;-59
2023/07/21 05:31:48;;;;;;;0.95;0.50;;;22.30;63.80;;;;;;5031534;28;20042;-59
2023/07/21 05:34:13;;;;;;;1.00;0.50;;;22.30;63.80;;;;;;5032629;28;20041;-59
2023/07/21 05:36:39;;;;;;;1.23;0.63;;;22.30;63.80;;;;;;5033628;28;20511;-59
2023/07/21 05:39:05;;;;;;;0.75;0.45;;;22.40;63.90;;;;;;5033112;28;20073;-59
2023/07/21 05:41:31;;;;;;;1.40;0.50;;;22.30;63.80;;;;;;5032642;28;20045;-60
2023/07/21 05:43:58;;;;;;;1.20;0.50;;;22.40;63.90;;;;;;5033194;28;20044;-59
2023/07/21 05:46:24;;;;;;;1.00;0.50;;;22.30;63.80;;;;;;5032951;28;20045;-60
2023/07/21 05:48:49;;;;;;;1.23;0.75;;;22.40;63.90;;;;;;5032861;28;20444;-60
2023/07/21 05:51:17;;;;;;;2.45;0.60;;;22.40;63.90;;;;;;5033401;28;20034;-60
2023/07/21 05:53:42;;;;;;;0.82;0.52;;;22.40;63.80;;;;;;5032034;28;20429;-61
2023/07/21 05:56:08;;;;;;;1.02;0.57;;;22.40;63.80;;;;;;5032741;28;20050;-60
2023/07/21 05:58:36;;;;;;;1.92;0.70;;;22.40;63.80;;;;;;5032904;28;20068;-60
2023/07/21 06:01:02;;;;;;;1.05;0.50;;;22.40;63.70;;;;;;5031487;28;20038;-59
2023/07/21 06:03:28;;;;;;;2.00;0.52;;;22.50;63.80;;;;;;5026062;28;20104;-61
2023/07/21 06:05:53;;;;;;;1.48;0.68;;;22.50;63.90;;;;;;5013503;28;20049;-61
2023/07/21 06:08:20;;;;;;;1.73;0.52;;;22.50;64.00;;;;;;5011259;28;20115;-60
2023/07/21 06:10:45;;;;;;;3.40;0.65;;;22.50;64.10;;;;;;5012348;28;20038;-61
2023/07/21 06:13:11;;;;;;;1.67;0.60;;;22.50;64.10;;;;;;5013712;28;20048;-61
2023/07/21 06:15:37;;;;;;;4.30;0.63;;;22.50;64.20;;;;;;5012032;28;20045;-59
2023/07/21 06:18:03;;;;;;;1.20;0.55;;;22.50;64.30;;;;;;5013090;28;20124;-60
2023/07/21 06:20:29;;;;;;;2.40;0.77;;;22.50;64.30;;;;;;5026051;28;20037;-61
2023/07/21 06:22:56;;;;;;;2.33;0.50;;;22.50;64.30;;;;;;5031833;28;20378;-60
2023/07/21 06:25:21;;;;;;;1.75;0.70;;;22.50;64.30;;;;;;5033150;28;20068;-60
2023/07/21 06:27:48;;;;;;;1.92;0.57;;;22.50;64.30;;;;;;5031831;28;20416;-59
2023/07/21 06:30:14;;;;;;;2.80;0.70;;;22.60;64.40;;;;;;5032032;28;20115;-59
2023/07/21 06:32:43;;;;;;;2.08;0.80;;;22.60;64.40;;;;;;5032577;28;20033;-60
2023/07/21 06:35:09;;;;;;;0.93;0.60;;;22.60;64.40;;;;;;5012689;28;20410;-59
2023/07/21 06:37:37;;;;;;;2.65;1.15;;;22.60;64.40;;;;;;5011933;28;20038;-60
2023/07/21 06:40:05;;;;;;;2.03;0.60;;;22.60;64.50;;;;;;5013106;28;20070;-59
2023/07/21 06:42:31;;;;;;;4.00;0.80;;;22.60;64.50;;;;;;5012154;28;20088;-59
2023/07/21 06:44:56;;;;;;;1.02;0.60;;;22.60;64.50;;;;;;5010618;28;20452;-59
2023/07/21 06:47:23;;;;;;;0.85;0.52;;;22.60;64.50;;;;;;5012882;28;20046;-59
2023/07/21 06:49:49;;;;;;;1.73;0.65;;;22.60;64.50;;;;;;5027958;28;20049;-60
2023/07/21 06:52:15;;;;;;;2.85;0.80;;;22.60;64.40;;;;;;5032309;28;20049;-59
2023/07/21 06:54:40;;;;;;;1.83;0.70;;;22.60;64.40;;;;;;5031861;28;20072;-59
2023/07/21 06:57:06;;;;;;;2.95;0.73;;;22.60;64.40;;;;;;5031806;28;20500;-59
2023/07/21 06:59:33;;;;;;;1.33;0.60;;;22.70;64.40;;;;;;5032050;28;20084;-60
2023/07/21 07:01:59;;;;;;;1.60;0.70;;;22.60;64.40;;;;;;5032414;28;20049;-59
2023/07/21 07:04:25;;;;;;;3.55;0.90;;;22.70;64.60;;;;;;5031477;28;20044;-60
2023/07/21 07:06:52;;;;;;;1.20;0.70;;;22.70;64.60;;;;;;5032271;28;20081;-59
2023/07/21 07:09:18;;;;;;;2.07;0.70;;;22.70;64.70;;;;;;5031865;28;20053;-59
2023/07/21 07:11:44;;;;;;;2.33;0.57;;;22.80;64.70;;;;;;5031287;28;20125;-59
2023/07/21 07:14:10;;;;;;;2.10;0.70;;;22.80;64.80;;;;;;5030694;28;20033;-58
2023/07/21 07:16:36;;;;;;;2.28;0.63;;;22.80;64.80;;;;;;5032098;28;20057;-59
2023/07/21 07:19:04;;;;;;;1.83;0.60;;;22.80;64.80;;;;;;5023442;28;20042;-59
2023/07/21 07:21:30;;;;;;;1.63;0.50;;;22.80;64.80;;;;;;5012299;28;20508;-61
2023/07/21 07:23:55;;;;;;;2.05;0.77;;;22.80;64.80;;;;;;5012403;28;20489;-59
2023/07/21 07:26:21;;;;;;;1.13;0.60;;;22.80;64.80;;;;;;5025781;28;20046;-59
2023/07/21 07:28:47;;;;;;;1.65;0.68;;;22.90;64.90;;;;;;5024191;28;20501;-59
2023/07/21 07:31:12;;;;;;;1.52;0.70;;;22.90;65.00;;;;;;5011813;28;20038;-59
2023/07/21 07:33:38;;;;;;;2.30;0.50;;;22.90;65.00;;;;;;5011187;28;20052;-59
2023/07/21 07:36:04;;;;;;;2.28;0.70;;;22.90;65.00;;;;;;5011693;28;20370;-59
2023/07/21 07:38:32;;;;;;;0.90;0.45;;;22.90;65.10;;;;;;5014954;28;20058;-59
2023/07/21 07:41:03;;;;;;;1.00;0.50;;;23.00;65.10;;;;;;5031530;28;20041;-59
2023/07/21 07:43:29;;;;;;;2.35;0.75;;;23.00;65.10;;;;;;5031418;28;20052;-59
2023/07/21 07:45:56;;;;;;;1.25;0.50;;;22.90;65.70;;;;;;5031406;28;20041;-59
2023/07/21 07:48:22;;;;;;;2.67;0.70;;;22.90;65.10;;;;;;5030412;28;20084;-61
2023/07/21 07:50:47;;;;;;;1.58;0.70;;;23.00;65.10;;;;;;5030808;28;20131;-59
2023/07/21 07:53:14;;;;;;;0.75;0.50;;;23.00;65.10;;;;;;5030401;28;20042;-59
2023/07/21 07:55:40;;;;;;;1.33;0.70;;;23.00;65.10;;;;;;5029314;28;20099;-59
2023/07/21 07:58:06;;;;;;;1.33;0.77;;;23.00;65.00;;;;;;5035320;28;20520;-59
2023/07/21 08:00:33;;;;;;;1.52;0.60;;;23.10;65.00;;;;;;5034689;28;20041;-59
2023/07/21 08:02:59;;;;;;;0.75;0.50;;;23.10;64.90;;;;;;5035593;28;20045;-59
2023/07/21 08:05:24;;;;;;;3.38;0.88;;;23.10;64.80;;;;;;5035701;28;20041;-59
2023/07/21 08:07:50;;;;;;;4.10;1.20;;;23.10;64.90;;;;;;5034361;28;20046;-60
2023/07/21 08:10:16;;;;;;;3.67;1.60;;;23.10;64.80;;;;;;5035477;28;20128;-59
2023/07/21 08:12:41;;;;;;;7.07;2.53;;;23.20;64.90;;;;;;5034541;28;20037;-58
2023/07/21 08:15:07;;;;;;;7.20;2.85;;;23.20;64.90;;;;;;5013652;28;20137;-60
2023/07/21 08:17:37;;;;;;;8.38;2.55;;;23.10;64.90;;;;;;5014324;28;20052;-59
2023/07/21 08:20:03;;;;;;;6.32;2.63;;;23.20;65.10;;;;;;5034208;28;20041;-59
2023/07/21 08:22:28;;;;;;;8.20;2.85;;;23.20;65.10;;;;;;5033761;28;20046;-60
2023/07/21 08:24:54;;;;;;;9.18;3.10;;;23.10;65.10;;;;;;5017127;28;20042;-60
2023/07/21 08:27:20;;;;;;;8.50;2.97;;;23.10;65.20;;;;;;5015598;28;20038;-59
2023/07/21 08:29:46;;;;;;;10.20;3.15;;;23.10;65.20;;;;;;5013756;28;20402;-59
2023/07/21 08:32:12;;;;;;;8.88;3.13;;;23.10;65.20;;;;;;5028011;28;20527;-60
2023/07/21 08:34:37;;;;;;;8.40;2.95;;;23.10;65.30;;;;;;5034565;28;20046;-60
2023/07/21 08:37:06;;;;;;;6.38;2.70;;;23.10;65.90;;;;;;5034159;28;20081;-59
2023/07/21 08:39:32;;;;;;;8.75;2.95;;;23.10;65.20;;;;;;5034424;28;20053;-60
2023/07/21 08:41:58;;;;;;;7.55;2.45;;;23.10;65.80;;;;;;5034090;28;20098;-60
2023/07/21 08:44:23;;;;;;;10.10;3.15;;;23.20;65.20;;;;;;5016246;28;20052;-60
2023/07/21 08:46:49;;;;;;;9.48;3.15;;;23.20;65.20;;;;;;5034361;28;20045;-60
2023/07/21 08:49:17;;;;;;;7.60;2.75;;;23.20;65.20;;;;;;5033628;28;20060;-59
2023/07/21 08:51:42;;;;;;;7.90;2.80;;;23.20;65.20;;;;;;5026321;28;20038;-58
2023/07/21 08:54:26;;;;;;;8.50;1.65;;;23.20;64.80;;;;;;5014554;28;20053;-58
2023/07/21 08:57:08;;;;;;;4.75;1.45;;;23.20;62.90;;;;;;5001688;28;20057;-58
2023/07/21 08:59:33;;;;;;;7.70;1.60;;;23.10;62.50;;;;;;5014232;28;20042;-59
2023/07/21 09:02:00;;;;;;;4.70;1.70;;;23.10;61.60;;;;;;5022232;28;20536;-59
2023/07/21 09:04:26;;;;;;;3.75;1.00;;;23.10;60.90;;;;;;5033754;28;20081;-60
2023/07/21 09:06:58;;;;;;;2.30;0.98;;;23.00;60.20;;;;;;5032386;28;20076;-58
2023/07/21 09:09:53;;;;;;;3.47;1.02;;;23.00;58.80;;;;;;5032010;28;20481;-58
2023/07/21 09:12:43;;;;;;;2.47;0.90;;;23.00;57.70;;;;;;5016103;28;20038;-57
2023/07/21 09:15:12;;;;;;;3.20;0.95;;;22.90;57.30;;;;;;5032107;28;20493;-58
2023/07/21 09:17:44;;;;;;;2.47;0.90;;;22.90;57.00;;;;;;5032403;28;20527;-57
2023/07/21 09:20:17;;;;;;;2.20;0.82;;;22.90;56.30;;;;;;5034079;28;20041;-58
2023/07/21 09:22:50;;;;;;;2.35;0.68;;;22.90;56.10;;;;;;5030454;28;20057;-58
2023/07/21 09:25:20;;;;;;;3.00;0.80;;;22.90;55.50;;;;;;5032996;28;20060;-58
2023/07/21 09:27:55;;;;;;;1.52;0.70;;;22.90;55.20;;;;;;5024343;28;20041;-58
2023/07/21 09:30:21;;;;;;;1.63;0.70;;;22.90;54.70;;;;;;5032471;28;20037;-58
2023/07/21 09:32:47;;;;;;;2.10;0.50;;;22.90;54.30;;;;;;5019989;28;20049;-58
2023/07/21 09:35:15;;;;;;;2.67;0.77;;;22.80;54.00;;;;;;5013354;28;20070;-58
2023/07/21 09:37:44;;;;;;;;;;;22.80;53.70;;;;;;5012095;28;20053;-58
2023/07/21 09:40:09;;;;;;;3.33;0.60;;;22.80;54.00;;;;;;5010961;28;20377;-58
2023/07/21 09:42:36;;;;;;;2.17;0.50;;;22.80;53.90;;;;;;5024537;28;20060;-59
2023/07/21 09:45:26;;;;;;;2.00;0.60;;;22.80;53.30;;;;;;5030727;28;20053;-58
2023/07/21 09:48:11;;;;;;;2.00;0.65;;;22.80;53.00;;;;;;5030079;28;20455;-58
2023/07/21 09:50:36;;;;;;;2.20;0.50;;;22.80;52.60;;;;;;5030731;28;20052;-59
2023/07/21 09:53:03;;;;;;;0.85;0.50;;;22.80;52.40;;;;;;5030864;28;20037;-59
2023/07/21 09:55:30;;;;;;;1.23;0.60;;;22.80;52.70;;;;;;5015046;28;20140;-59
2023/07/21 09:57:55;;;;;;;1.45;0.60;;;22.70;52.50;;;;;;4998567;28;20060;-59
2023/07/21 10:00:24;;;;;;;0.80;0.52;;;22.80;52.20;;;;;;5031775;28;20033;-58
2023/07/21 10:02:50;;;;;;;0.98;0.50;;;22.70;52.10;;;;;;5031873;28;20532;-59
2023/07/21 10:05:16;;;;;;;1.65;0.70;;;22.70;51.80;;;;;;5032441;28;20067;-59
2023/07/21 10:07:46;;;;;;;1.20;0.65;;;22.70;51.60;;;;;;5032058;28;20470;-59
2023/07/21 10:10:11;;;;;;;1.98;0.60;;;22.70;51.20;;;;;;5031894;28;20488;-58
2023/07/21 10:12:52;;;;;;;1.60;0.70;;;22.70;51.40;;;;;;5031951;28;20038;-59
2023/07/21 10:15:27;;;;;;;1.63;0.70;;;22.70;51.10;;;;;;5030947;28;20052;-59
2023/07/21 10:17:59;;;;;;;2.28;0.63;;;22.70;51.00;;;;;;5032696;28;20053;-59
2023/07/21 10:20:50;;;;;;;1.85;0.60;;;22.70;50.70;;;;;;5031983;28;20045;-59
2023/07/21 10:23:18;;;;;;;1.48;0.70;;;22.70;50.00;;;;;;5032349;28;20041;-59
2023/07/21 10:25:56;;;;;;;2.30;0.70;;;22.70;50.20;;;;;;5032849;28;20073;-59
2023/07/21 10:28:38;;;;;;;1.48;0.55;;;22.70;50.20;;;;;;5031837;28;20535;-59
2023/07/21 10:31:25;;;;;;;2.15;0.68;;;22.80;50.20;;;;;;5031042;28;20057;-58
2023/07/21 10:34:10;;;;;;;1.55;0.60;;;22.80;50.20;;;;;;5032175;28;20041;-59
2023/07/21 10:36:51;;;;;;;3.05;0.90;;;22.80;50.20;;;;;;5031635;28;20155;-58
2023/07/21 10:39:27;;;;;;;1.38;0.52;;;22.80;49.20;;;;;;5030205;28;20438;-58
2023/07/21 10:41:58;;;;;;;4.15;0.90;;;22.80;49.10;;;;;;5031208;28;20049;-59
2023/07/21 10:44:24;;;;;;;2.95;0.70;;;22.80;48.90;;;;;;5028504;28;20041;-58
2023/07/21 10:46:50;;;;;;;2.95;0.70;;;22.70;48.90;;;;;;5029480;28;20045;-58
2023/07/21 10:49:17;;;;;;;3.80;0.70;;;22.80;48.70;;;;;;5031223;28;20085;-58
2023/07/21 10:51:44;;;;;;;1.48;0.88;;;22.70;48.60;;;;;;5031831;28;20666;-58
2023/07/21 10:54:10;;;;;;;0.85;0.55;;;22.80;48.50;;;;;;5032172;28;20044;-58
2023/07/21 10:56:38;;;;;;;1.73;0.70;;;22.80;48.50;;;;;;5030692;28;20509;-57
2023/07/21 10:59:04;;;;;;;0.90;0.60;;;22.80;48.50;;;;;;5030668;28;20038;-59
2023/07/21 11:01:31;;;;;;;1.67;0.70;;;22.80;48.70;;;;;;5031862;28;20088;-59
2023/07/21 11:03:57;;;;;;;2.53;0.65;;;22.80;48.60;;;;;;5031243;28;20037;-58
2023/07/21 11:06:23;;;;;;;2.03;0.60;;;22.80;48.60;;;;;;5031215;28;20053;-59
2023/07/21 11:08:49;;;;;;;1.90;0.73;;;22.80;48.60;;;;;;5031695;28;20459;-58
2023/07/21 11:11:15;;;;;;;2.45;0.70;;;22.90;48.80;;;;;;5029734;28;20037;-59
2023/07/21 11:13:40;;;;;;;1.17;0.60;;;22.80;48.90;;;;;;5028544;28;20049;-58
2023/07/21 11:16:06;;;;;;;2.20;0.80;;;22.80;48.90;;;;;;5030675;28;20038;-58
2023/07/21 11:18:32;;;;;;;1.85;0.93;;;22.90;48.80;;;;;;5030936;28;20401;-58
2023/07/21 11:20:57;;;;;;;2.97;0.70;;;22.90;48.80;;;;;;5031996;28;20354;-58
2023/07/21 11:23:23;;;;;;;2.55;0.75;;;22.90;48.90;;;;;;5031909;28;20053;-58
2023/07/21 11:26:19;;;;;;;1.60;0.70;;;22.90;48.90;;;;;;5030357;28;20033;-58
2023/07/21 11:28:44;;;;;;;1.88;0.90;;;22.90;48.90;;;;;;4996331;28;20066;-59
2023/07/21 11:31:13;;;;;;;5.30;1.00;;;22.80;48.80;;;;;;5012487;28;20219;-60
2023/07/21 11:33:43;;;;;;;10.60;1.10;;;22.80;48.70;;;;;;5015301;28;20476;-60
2023/07/21 11:36:24;;;;;;;1.08;0.73;;;22.80;48.80;;;;;;5015155;28;20038;-60
2023/07/21 11:38:59;;;;;;;3.50;0.90;;;22.80;49.00;;;;;;5011250;28;20497;-59
2023/07/21 11:41:51;;;;;;;5.30;0.80;;;22.80;49.30;;;;;;5016119;28;20042;-59
2023/07/21 11:44:35;;;;;;;7.07;0.85;;;22.90;49.60;;;;;;5011472;28;20061;-61
2023/07/21 11:47:11;;;;;;;4.07;0.90;;;23.00;49.80;;;;;;5015638;28;20188;-61
2023/07/21 11:49:41;;;;;;;2.65;0.70;;;22.90;49.80;;;;;;5035679;28;20092;-61
2023/07/21 11:52:08;;;;;;;3.13;0.73;;;23.00;50.00;;;;;;5035066;28;20103;-63
2023/07/21 11:54:45;;;;;;;5.55;0.90;;;23.00;49.90;;;;;;5035345;28;20099;-61
2023/07/21 11:57:11;;;;;;;2.08;0.80;;;23.10;50.10;;;;;;5035077;28;20495;-61
2023/07/21 11:59:37;;;;;;;2.50;0.85;;;23.10;50.00;;;;;;5033467;28;20156;-62
2023/07/21 12:02:04;;;;;;;3.75;0.80;;;23.20;50.10;;;;;;5034824;28;20492;-61
2023/07/21 12:04:30;;;;;;;6.53;1.10;;;23.30;50.30;;;;;;5034603;28;20049;-60
2023/07/21 12:06:55;;;;;;;3.72;0.93;;;23.40;50.30;;;;;;5033488;28;20038;-60
2023/07/21 12:09:21;;;;;;;2.85;0.80;;;23.40;50.40;;;;;;5016047;28;20053;-61
2023/07/21 12:11:47;;;;;;;3.30;0.73;;;23.40;50.60;;;;;;5015146;28;20493;-61
2023/07/21 12:14:13;;;;;;;5.18;1.02;;;23.40;50.60;;;;;;5033001;28;20053;-61
2023/07/21 12:16:39;;;;;;;6.57;0.90;;;23.40;50.70;;;;;;5034294;28;20386;-60
2023/07/21 12:19:05;;;;;;;4.43;1.15;;;23.40;50.90;;;;;;5034418;28;20520;-60
2023/07/21 12:21:31;;;;;;;2.13;0.80;;;23.40;51.10;;;;;;5033979;28;20033;-60
2023/07/21 12:23:57;;;;;;;4.60;0.80;;;23.40;51.20;;;;;;5034919;28;20041;-60
2023/07/21 12:26:23;;;;;;;4.78;0.70;;;23.40;51.40;;;;;;5034971;28;20586;-60
2023/07/21 12:28:50;;;;;;;2.72;0.90;;;23.40;51.50;;;;;;5032567;28;20049;-61
2023/07/21 12:31:18;;;;;;;5.22;0.90;;;23.40;51.60;;;;;;5032234;28;20128;-60
2023/07/21 12:33:45;;;;;;;3.92;0.95;;;23.40;51.70;;;;;;5020497;28;20034;-60
2023/07/21 12:36:14;;;;;;;3.10;0.85;;;23.40;51.90;;;;;;5013860;28;20401;-60
2023/07/21 12:38:41;;;;;;;1.95;0.80;;;23.40;52.10;;;;;;5014451;28;20505;-60
2023/07/21 12:41:06;;;;;;;4.82;1.00;;;23.40;52.30;;;;;;5014378;28;20413;-60
2023/07/21 12:43:32;;;;;;;2.70;0.90;;;23.40;52.40;;;;;;5012443;28;20052;-60
2023/07/21 12:45:57;;;;;;;6.28;1.00;;;23.30;52.30;;;;;;5014239;28;20536;-60
2023/07/21 12:48:23;;;;;;;4.30;1.17;;;23.40;52.20;;;;;;5014075;28;20046;-59
2023/07/21 12:50:49;;;;;;;3.08;0.98;;;23.30;52.00;;;;;;5014238;28;20429;-59